Time;durP1;ratioP1;P1;durP2;ratioP2;P2;SDS_P1;SDS_P2;PMS_P1;PMS_P2;Temp;Humidity;BMP_temperature;BMP_pressure;BME280_temperature;BME280_humidity;BME280_pressure;Samples;Min_cycle;Max_cycle;Signal;HPM_P1;HPM_P2
2020/09/11 00:00:43;;;;;;;1.4;1;;;;;;;;;;;;;
2020/09/11 00:03:10;;;;;;;1.9;1.1;;;;;;;;;;;;;
2020/09/11 00:05:36;;;;;;;2.6;1;;;;;;;;;;;;;
2020/09/11 00:08:01;;;;;;;1.6;1;;;;;;;;;;;;;
2020/09/11 00:10:26;;;;;;;1.9;0.7;;;;;;;;;;;;;
2020/09/11 00:12:54;;;;;;;1.8;1.1;;;;;;;;;;;;;
2020/09/11 00:15:19;;;;;;;3.7;1.1;;;;;;;;;;;;;
2020/09/11 00:17:45;;;;;;;4.1;1.3;;;;;;;;;;;;;
2020/09/11 00:20:10;;;;;;;2.2;1;;;;;;;;;;;;;
2020/09/11 00:22:35;;;;;;;2.6;1;;;;;;;;;;;;;
2020/09/11 00:25:00;;;;;;;1.7;1;;;;;;;;;;;;;
2020/09/11 00:27:27;;;;;;;2.1;1.1;;;;;;;;;;;;;
2020/09/11 00:29:52;;;;;;;3.1;1.3;;;;;;;;;;;;;
2020/09/11 00:32:17;;;;;;;1;0.8;;;;;;;;;;;;;
2020/09/11 00:34:42;;;;;;;1.7;1.1;;;;;;;;;;;;;
2020/09/11 00:37:08;;;;;;;0.9;0.7;;;;;;;;;;;;;
2020/09/11 00:39:33;;;;;;;1.6;0.9;;;;;;;;;;;;;
2020/09/11 00:42:00;;;;;;;7.9;1.1;;;;;;;;;;;;;
2020/09/11 00:44:25;;;;;;;4.3;1.3;;;;;;;;;;;;;
2020/09/11 00:46:52;;;;;;;2.9;1.2;;;;;;;;;;;;;
2020/09/11 00:49:16;;;;;;;3.2;0.9;;;;;;;;;;;;;
2020/09/11 00:51:42;;;;;;;1.6;0.9;;;;;;;;;;;;;
2020/09/11 00:54:07;;;;;;;1.9;1;;;;;;;;;;;;;
2020/09/11 00:56:32;;;;;;;4.2;1.3;;;;;;;;;;;;;
2020/09/11 00:58:57;;;;;;;1.6;1;;;;;;;;;;;;;
2020/09/11 01:01:22;;;;;;;2.5;1.1;;;;;;;;;;;;;
2020/09/11 01:03:48;;;;;;;1.7;0.9;;;;;;;;;;;;;
2020/09/11 01:06:13;;;;;;;1.9;0.9;;;;;;;;;;;;;
2020/09/11 01:08:38;;;;;;;0.6;0.6;;;;;;;;;;;;;
2020/09/11 01:11:03;;;;;;;4.6;1.6;;;;;;;;;;;;;
2020/09/11 01:13:28;;;;;;;0.8;0.8;;;;;;;;;;;;;
2020/09/11 01:15:53;;;;;;;2.7;1.4;;;;;;;;;;;;;
2020/09/11 01:18:18;;;;;;;1.1;0.9;;;;;;;;;;;;;
2020/09/11 01:20:43;;;;;;;1.4;0.9;;;;;;;;;;;;;
2020/09/11 01:23:10;;;;;;;1.7;1.3;;;;;;;;;;;;;
2020/09/11 01:25:34;;;;;;;1.4;1.1;;;;;;;;;;;;;
2020/09/11 01:27:59;;;;;;;1.2;1.1;;;;;;;;;;;;;
2020/09/11 01:30:27;;;;;;;1.1;0.8;;;;;;;;;;;;;
2020/09/11 01:32:52;;;;;;;0.8;0.8;;;;;;;;;;;;;
2020/09/11 01:35:17;;;;;;;1.7;0.9;;;;;;;;;;;;;
2020/09/11 01:37:42;;;;;;;2.8;0.8;;;;;;;;;;;;;
2020/09/11 01:40:07;;;;;;;1.3;1;;;;;;;;;;;;;
2020/09/11 01:42:33;;;;;;;2.3;1.1;;;;;;;;;;;;;
2020/09/11 01:44:58;;;;;;;4;1;;;;;;;;;;;;;
2020/09/11 01:47:25;;;;;;;1.8;1;;;;;;;;;;;;;
2020/09/11 01:49:51;;;;;;;1.3;1;;;;;;;;;;;;;
2020/09/11 01:52:16;;;;;;;0.9;0.9;;;;;;;;;;;;;
2020/09/11 01:54:42;;;;;;;1.1;1;;;;;;;;;;;;;
2020/09/11 01:57:07;;;;;;;1.1;0.8;;;;;;;;;;;;;
2020/09/11 01:59:32;;;;;;;2;1.4;;;;;;;;;;;;;
2020/09/11 02:01:58;;;;;;;1.1;0.9;;;;;;;;;;;;;
2020/09/11 02:04:22;;;;;;;3.1;1;;;;;;;;;;;;;
2020/09/11 02:06:49;;;;;;;1.3;0.9;;;;;;;;;;;;;
2020/09/11 02:09:13;;;;;;;1.5;1.1;;;;;;;;;;;;;
2020/09/11 02:11:38;;;;;;;2.2;1.1;;;;;;;;;;;;;
2020/09/11 02:14:03;;;;;;;1;0.6;;;;;;;;;;;;;
2020/09/11 02:16:31;;;;;;;1.1;0.8;;;;;;;;;;;;;
2020/09/11 02:18:53;;;;;;;1.5;0.9;;;;;;;;;;;;;
2020/09/11 02:21:19;;;;;;;1.1;0.9;;;;;;;;;;;;;
2020/09/11 02:23:44;;;;;;;2.6;1.2;;;;;;;;;;;;;
2020/09/11 02:26:10;;;;;;;1.4;1.2;;;;;;;;;;;;;
2020/09/11 02:28:38;;;;;;;1.2;1.1;;;;;;;;;;;;;
2020/09/11 02:31:01;;;;;;;1.1;0.9;;;;;;;;;;;;;
2020/09/11 02:33:26;;;;;;;2;1.1;;;;;;;;;;;;;
2020/09/11 02:35:54;;;;;;;3.1;1;;;;;;;;;;;;;
2020/09/11 02:38:19;;;;;;;1.8;1.1;;;;;;;;;;;;;
2020/09/11 02:40:47;;;;;;;1.3;0.9;;;;;;;;;;;;;
2020/09/11 02:43:12;;;;;;;4;1.2;;;;;;;;;;;;;
2020/09/11 02:45:37;;;;;;;1.3;0.7;;;;;;;;;;;;;
2020/09/11 02:48:02;;;;;;;3.6;1.5;;;;;;;;;;;;;
2020/09/11 02:50:29;;;;;;;1.3;0.9;;;;;;;;;;;;;
2020/09/11 02:52:54;;;;;;;2.9;1.3;;;;;;;;;;;;;
2020/09/11 02:55:19;;;;;;;1.5;1;;;;;;;;;;;;;
2020/09/11 02:57:45;;;;;;;1.4;0.8;;;;;;;;;;;;;
2020/09/11 03:00:11;;;;;;;1.1;1;;;;;;;;;;;;;
2020/09/11 03:02:35;;;;;;;2.1;1;;;;;;;;;;;;;
2020/09/11 03:05:01;;;;;;;2.7;1.2;;;;;;;;;;;;;
2020/09/11 03:07:27;;;;;;;0.8;0.7;;;;;;;;;;;;;
2020/09/11 03:09:52;;;;;;;2.2;1.2;;;;;;;;;;;;;
2020/09/11 03:12:18;;;;;;;1.5;1;;;;;;;;;;;;;
2020/09/11 03:14:44;;;;;;;1.4;1.2;;;;;;;;;;;;;
2020/09/11 03:17:09;;;;;;;1.9;1.1;;;;;;;;;;;;;
2020/09/11 03:19:37;;;;;;;1.6;1.3;;;;;;;;;;;;;
2020/09/11 03:22:00;;;;;;;1.1;1;;;;;;;;;;;;;
2020/09/11 03:24:26;;;;;;;1.9;1.1;;;;;;;;;;;;;
2020/09/11 03:26:51;;;;;;;1.4;1.1;;;;;;;;;;;;;
2020/09/11 03:29:20;;;;;;;1.3;1;;;;;;;;;;;;;
2020/09/11 03:31:43;;;;;;;0.9;0.8;;;;;;;;;;;;;
2020/09/11 03:34:09;;;;;;;1.9;1;;;;;;;;;;;;;
2020/09/11 03:36:34;;;;;;;1.6;1.2;;;;;;;;;;;;;
2020/09/11 03:39:00;;;;;;;1.1;1;;;;;;;;;;;;;
2020/09/11 03:41:25;;;;;;;1.7;1.2;;;;;;;;;;;;;
2020/09/11 03:43:51;;;;;;;1.9;1.1;;;;;;;;;;;;;
2020/09/11 03:46:17;;;;;;;2.2;1.1;;;;;;;;;;;;;
2020/09/11 03:48:43;;;;;;;1.4;0.9;;;;;;;;;;;;;
2020/09/11 03:51:08;;;;;;;1;0.7;;;;;;;;;;;;;
2020/09/11 03:53:33;;;;;;;1.6;1;;;;;;;;;;;;;
2020/09/11 03:55:59;;;;;;;1.7;0.7;;;;;;;;;;;;;
2020/09/11 03:58:23;;;;;;;11;1.7;;;;;;;;;;;;;
2020/09/11 04:02:32;;;;;;;1.3;1;;;;;;;16.96;80.54297;938.3195;;;;
2020/09/11 04:04:57;;;;;;;1.9;0.9;;;;;;;16.9;80.94922;938.3237;;;;
2020/09/11 04:07:24;;;;;;;1.3;0.9;;;;;;;17;81.02539;938.4172;;;;
2020/09/11 04:09:48;;;;;;;3.5;1.2;;;;;;;16.93;80.76855;938.3917;;;;
2020/09/11 04:12:15;;;;;;;1.3;0.9;;;;;;;16.9;80.91406;938.3624;;;;
2020/09/11 04:14:41;;;;;;;2.3;1;;;;;;;16.87;80.89746;938.3258;;;;
2020/09/11 04:17:08;;;;;;;2.1;1.1;;;;;;;16.75;81.24512;938.3344;;;;
2020/09/11 04:19:33;;;;;;;7.4;1.3;;;;;;;16.8;81.91504;938.3169;;;;
2020/09/11 04:21:58;;;;;;;5.3;1.8;;;;;;;16.87;81.28027;938.3081;;;;
2020/09/11 04:24:26;;;;;;;4.9;1.3;;;;;;;16.83;81.66504;938.307;;;;
2020/09/11 04:26:51;;;;;;;1.9;1.1;;;;;;;16.71;81.89844;938.2514;;;;
2020/09/11 04:29:16;;;;;;;3.5;1.6;;;;;;;16.55;82.40039;938.2924;;;;
2020/09/11 04:31:43;;;;;;;2.1;1.4;;;;;;;16.45;83.19238;938.2881;;;;
2020/09/11 04:34:08;;;;;;;1.8;0.8;;;;;;;16.38;83.49023;938.231;;;;
2020/09/11 04:36:33;;;;;;;9.8;1.9;;;;;;;16.27;84.11816;938.2258;;;;
2020/09/11 04:38:59;;;;;;;3.8;1.4;;;;;;;16.3;84.07715;938.1652;;;;
2020/09/11 04:41:26;;;;;;;1.7;1.1;;;;;;;16.36;83.74219;938.1725;;;;
2020/09/11 04:43:53;;;;;;;1.2;1;;;;;;;16.33;83.80566;938.1302;;;;
2020/09/11 04:46:18;;;;;;;1.6;1;;;;;;;16.46;83.69141;938.1916;;;;
2020/09/11 04:48:47;;;;;;;1.9;1;;;;;;;16.63;82.89063;938.1783;;;;
2020/09/11 04:51:12;;;;;;;4;1.1;;;;;;;16.71;82.02734;938.1975;;;;
2020/09/11 04:53:37;;;;;;;1.5;1.1;;;;;;;16.82;81.74512;938.2202;;;;
2020/09/11 04:56:06;;;;;;;1.1;0.9;;;;;;;16.91;81.27344;938.1797;;;;
2020/09/11 04:58:31;;;;;;;1.6;0.9;;;;;;;16.95;81.0166;938.1653;;;;
2020/09/11 05:00:57;;;;;;;1.9;1.2;;;;;;;17.02;80.74023;938.1114;;;;
2020/09/11 05:03:21;;;;;;;2.4;1.2;;;;;;;16.87;81.08301;938.1328;;;;
2020/09/11 05:05:46;;;;;;;1.8;1;;;;;;;16.98;80.88281;938.1239;;;;
2020/09/11 05:08:12;;;;;;;2.4;1.5;;;;;;;16.88;81.28027;938.1697;;;;
2020/09/11 05:10:42;;;;;;;3.6;1.5;;;;;;;16.97;81.08789;938.1602;;;;
2020/09/11 05:13:07;;;;;;;3.5;1.1;;;;;;;16.99;80.89648;938.0988;;;;
2020/09/11 05:15:33;;;;;;;1.5;1.1;;;;;;;16.94;81.00195;938.1165;;;;
2020/09/11 05:17:58;;;;;;;2.5;1.3;;;;;;;16.85;81.23047;938.0703;;;;
2020/09/11 05:20:23;;;;;;;2.8;1.5;;;;;;;16.82;81.45508;938.1236;;;;
2020/09/11 05:22:49;;;;;;;1.9;1.3;;;;;;;16.82;81.56152;938.09;;;;
2020/09/11 05:25:16;;;;;;;10.7;2.3;;;;;;;16.88;81.14258;938.0594;;;;
2020/09/11 05:27:41;;;;;;;3;1.6;;;;;;;16.9;80.96094;938.0471;;;;
2020/09/11 05:30:06;;;;;;;1.8;1.1;;;;;;;17.04;80.59277;938.0588;;;;
2020/09/11 05:32:31;;;;;;;3.4;1.7;;;;;;;17.04;80.08105;938.0444;;;;
2020/09/11 05:34:58;;;;;;;3.1;1.3;;;;;;;17.1;79.72363;938.0095;;;;
2020/09/11 05:37:23;;;;;;;18.1;1.8;;;;;;;17.1;79.78027;938.0298;;;;
2020/09/11 05:39:48;;;;;;;11.4;1.7;;;;;;;17.03;80.03516;938.0308;;;;
2020/09/11 05:42:13;;;;;;;2.3;1.1;;;;;;;17.02;80.37988;938.0508;;;;
2020/09/11 05:44:40;;;;;;;14.9;2;;;;;;;16.98;80.65137;938.0964;;;;
2020/09/11 05:47:05;;;;;;;2.1;1;;;;;;;16.97;80.97168;938.1642;;;;
2020/09/11 05:49:30;;;;;;;3.4;1.3;;;;;;;16.86;81.4043;938.1627;;;;
2020/09/11 05:51:56;;;;;;;1.7;1.3;;;;;;;16.78;82.03906;938.145;;;;
2020/09/11 05:54:21;;;;;;;4.7;1.3;;;;;;;16.75;82.27539;938.1608;;;;
2020/09/11 05:56:47;;;;;;;1.5;1.1;;;;;;;16.74;82.08887;938.1625;;;;
2020/09/11 05:59:13;;;;;;;2.5;1.4;;;;;;;16.83;81.84082;938.1293;;;;
2020/09/11 06:01:38;;;;;;;1.5;1;;;;;;;16.96;81.15625;938.1588;;;;
2020/09/11 06:04:03;;;;;;;3.4;1.5;;;;;;;17.07;80.79492;938.1566;;;;
2020/09/11 06:06:28;;;;;;;1.4;1;;;;;;;17.15;80.33496;938.1448;;;;
2020/09/11 06:08:53;;;;;;;1.4;1.2;;;;;;;17.33;80.10059;938.1655;;;;
2020/09/11 06:11:18;;;;;;;1.4;0.9;;;;;;;17.61;78.67676;938.1287;;;;
2020/09/11 06:13:43;;;;;;;1.7;1.3;;;;;;;17.88;77.56543;938.1093;;;;
2020/09/11 06:16:09;;;;;;;6;1.4;;;;;;;18.01;76.2998;938.1077;;;;
2020/09/11 06:18:34;;;;;;;1.7;0.9;;;;;;;18.15;76.99609;938.0328;;;;
2020/09/11 06:20:59;;;;;;;23.2;1.5;;;;;;;18.67;74.08789;938.0455;;;;
2020/09/11 06:23:25;;;;;;;2.4;1.5;;;;;;;18.78;72.98926;938.093;;;;
2020/09/11 06:25:51;;;;;;;2.7;1.3;;;;;;;18.95;72.89941;938.0959;;;;
2020/09/11 06:28:17;;;;;;;1.6;1.1;;;;;;;19.51;71.33789;938.1172;;;;
2020/09/11 06:30:45;;;;;;;5.8;1.3;;;;;;;20.49;67.41992;938.1235;;;;
2020/09/11 06:33:10;;;;;;;2.6;1;;;;;;;20.97;65.00195;938.0709;;;;
2020/09/11 06:35:35;;;;;;;2.3;1.2;;;;;;;21.47;63.42578;938.0681;;;;
2020/09/11 06:38:01;;;;;;;1.8;1.3;;;;;;;21.46;63.54004;938.1213;;;;
2020/09/11 06:40:26;;;;;;;1.8;1.2;;;;;;;21.4;63.33203;938.1537;;;;
2020/09/11 06:42:51;;;;;;;2.9;1.6;;;;;;;21.25;64.61035;938.1845;;;;
2020/09/11 06:45:22;;;;;;;4.1;1.7;;;;;;;21.34;63.73438;938.1937;;;;
2020/09/11 06:47:47;;;;;;;1.2;0.7;;;;;;;21.09;65.125;938.1953;;;;
2020/09/11 06:50:17;;;;;;;2.2;0.8;;;;;;;21.26;63.80469;938.1752;;;;
2020/09/11 06:52:42;;;;;;;2.2;0.9;;;;;;;20.69;67.16992;938.1583;;;;
2020/09/11 06:55:11;;;;;;;3;1.1;;;;;;;20.79;67.10254;938.2056;;;;
2020/09/11 06:57:36;;;;;;;3.2;0.8;;;;;;;21.07;65.32129;938.1741;;;;
2020/09/11 07:00:01;;;;;;;2.2;1.5;;;;;;;21.16;66.28223;938.1339;;;;
2020/09/11 07:02:26;;;;;;;3.7;1.3;;;;;;;21.22;64.85254;938.1264;;;;
2020/09/11 07:04:52;;;;;;;0.8;0.7;;;;;;;21.31;65.49609;938.0999;;;;
2020/09/11 07:07:17;;;;;;;2.2;1.1;;;;;;;21.3;67.74316;938.0703;;;;
2020/09/11 07:09:45;;;;;;;4.7;0.8;;;;;;;21.27;69.78516;938.1239;;;;
2020/09/11 07:12:10;;;;;;;2.1;1;;;;;;;21.33;68.27344;938.1657;;;;
2020/09/11 07:14:35;;;;;;;2.5;1.2;;;;;;;21.71;67.19531;938.1609;;;;
2020/09/11 07:17:00;;;;;;;2.3;1;;;;;;;22.14;65.09082;938.2275;;;;
2020/09/11 07:19:25;;;;;;;1;0.9;;;;;;;21.96;66.61328;938.1674;;;;
2020/09/11 07:21:50;;;;;;;9;1;;;;;;;22.14;65.17285;938.1925;;;;
2020/09/11 07:24:15;;;;;;;1.9;1.1;;;;;;;22.48;64.36719;938.1372;;;;
2020/09/11 07:26:41;;;;;;;1.2;1;;;;;;;22.89;62.93457;938.1289;;;;
2020/09/11 07:29:06;;;;;;;2;1;;;;;;;23.49;61.26758;938.2475;;;;
2020/09/11 07:31:31;;;;;;;2.4;1;;;;;;;23.58;59.44434;938.2231;;;;
2020/09/11 07:33:56;;;;;;;0.8;0.7;;;;;;;24.58;57.05664;938.1492;;;;
2020/09/11 07:36:21;;;;;;;1.3;0.8;;;;;;;24.96;55.16895;938.1661;;;;
2020/09/11 07:38:50;;;;;;;4.6;1;;;;;;;25.18;54.74805;938.1448;;;;
2020/09/11 07:41:15;;;;;;;1.4;0.8;;;;;;;26.28;51.30957;938.1911;;;;
2020/09/11 07:43:40;;;;;;;1.9;0.7;;;;;;;26.99;49.48145;938.1067;;;;
2020/09/11 07:46:06;;;;;;;3.9;1.1;;;;;;;27.94;46.70117;938.1367;;;;
2020/09/11 07:48:39;;;;;;;0.8;0.7;;;;;;;28.33;45.79004;938.1433;;;;
2020/09/11 07:51:03;;;;;;;1.7;1;;;;;;;28.8;44.81445;938.085;;;;
2020/09/11 07:53:28;;;;;;;1.3;1;;;;;;;29.99;43.3584;938.1213;;;;
2020/09/11 07:55:57;;;;;;;1.3;0.8;;;;;;;29.16;44.40918;938.0719;;;;
2020/09/11 07:58:23;;;;;;;1;0.6;;;;;;;31.03;39.89453;938.1121;;;;
2020/09/11 08:00:52;;;;;;;0.9;0.8;;;;;;;32.27;37.55664;938.1063;;;;
2020/09/11 08:03:17;;;;;;;1;0.8;;;;;;;31.87;37.57227;938.1371;;;;
2020/09/11 08:05:45;;;;;;;0.6;0.6;;;;;;;30.85;40.08105;938.0983;;;;
2020/09/11 08:08:10;;;;;;;0.6;0.5;;;;;;;32.45;37.21094;938.1;;;;
2020/09/11 08:10:41;;;;;;;2;0.9;;;;;;;31.98;38.25195;938.1067;;;;
2020/09/11 08:13:07;;;;;;;0.8;0.6;;;;;;;32.81;37.34961;938.1372;;;;
2020/09/11 08:15:32;;;;;;;1.2;0.9;;;;;;;31.24;38.94336;938.1548;;;;
2020/09/11 08:18:00;;;;;;;1.1;0.6;;;;;;;31.52;38.7041;938.1136;;;;
2020/09/11 08:20:25;;;;;;;1.3;0.6;;;;;;;33.01;35.78027;938.045;;;;
2020/09/11 08:22:52;;;;;;;2.3;1;;;;;;;33.98;34.23145;938.0942;;;;
2020/09/11 08:25:18;;;;;;;0.9;0.8;;;;;;;34.39;33.69629;938.16;;;;
2020/09/11 08:27:43;;;;;;;1.4;0.8;;;;;;;34.41;33.69824;938.1312;;;;
2020/09/11 08:30:10;;;;;;;0.8;0.6;;;;;;;33.41;35.87207;938.1174;;;;
2020/09/11 08:32:35;;;;;;;1.2;0.8;;;;;;;34.2;34.13965;938.1431;;;;
2020/09/11 08:35:01;;;;;;;0.9;0.6;;;;;;;34.84;32.86133;938.14;;;;
2020/09/11 08:37:30;;;;;;;0.9;0.7;;;;;;;35.65;32.01367;938.22;;;;
2020/09/11 08:39:53;;;;;;;0.9;0.6;;;;;;;35.51;32.06445;938.2076;;;;
2020/09/11 08:42:18;;;;;;;1.9;0.8;;;;;;;35.68;32.19629;938.2244;;;;
2020/09/11 08:44:43;;;;;;;0.9;0.7;;;;;;;35.1;32.17969;938.255;;;;
2020/09/11 08:47:09;;;;;;;0.8;0.7;;;;;;;34.61;34.06152;938.1683;;;;
2020/09/11 08:49:34;;;;;;;1;0.8;;;;;;;33.9;33.62402;938.1815;;;;
2020/09/11 08:52:04;;;;;;;2.2;0.8;;;;;;;33.81;33.58203;938.1878;;;;
2020/09/11 08:54:28;;;;;;;0.7;0.6;;;;;;;32.46;36.60156;938.1489;;;;
2020/09/11 08:56:56;;;;;;;0.6;0.6;;;;;;;32.26;37.35254;938.1671;;;;
2020/09/11 08:59:21;;;;;;;3.1;1.2;;;;;;;32.16;37.72754;938.1603;;;;
2020/09/11 09:01:46;;;;;;;0.9;0.7;;;;;;;31.43;40.37109;938.1939;;;;
2020/09/11 09:04:11;;;;;;;0.6;0.6;;;;;;;30.92;42.17969;938.1799;;;;
2020/09/11 09:06:37;;;;;;;0.7;0.7;;;;;;;30.73;40.78809;938.1594;;;;
2020/09/11 09:09:02;;;;;;;0.8;0.7;;;;;;;30.55;41.17773;938.182;;;;
2020/09/11 09:11:27;;;;;;;3.2;0.9;;;;;;;29.78;44.4834;938.2117;;;;
2020/09/11 09:13:53;;;;;;;1.4;0.7;;;;;;;29.2;44.75977;938.17;;;;
2020/09/11 09:16:20;;;;;;;1.1;0.7;;;;;;;29.49;42.69043;938.1642;;;;
2020/09/11 09:18:45;;;;;;;1.6;0.9;;;;;;;29.7;42.98438;938.125;;;;
2020/09/11 09:21:11;;;;;;;1;0.9;;;;;;;29.32;43.28125;938.0726;;;;
2020/09/11 09:23:36;;;;;;;1.3;0.9;;;;;;;29.46;43.06836;938.0815;;;;
2020/09/11 09:26:01;;;;;;;0.9;0.8;;;;;;;29.42;44.32715;938.0276;;;;
2020/09/11 09:28:26;;;;;;;1.1;0.7;;;;;;;29.59;43.25977;938.0854;;;;
2020/09/11 09:30:51;;;;;;;1.3;0.7;;;;;;;29.39;44.39648;938.0592;;;;
2020/09/11 09:33:17;;;;;;;1;0.8;;;;;;;29.68;44.44922;938.0659;;;;
2020/09/11 09:35:45;;;;;;;1.1;0.8;;;;;;;30.58;41.61035;938.1227;;;;
2020/09/11 09:38:09;;;;;;;2.5;0.9;;;;;;;30.48;41.38672;938.1281;;;;
2020/09/11 09:40:34;;;;;;;1.9;1.1;;;;;;;30.13;41.61719;938.1574;;;;
2020/09/11 09:42:59;;;;;;;1.8;1;;;;;;;30.32;42.21973;938.1111;;;;
2020/09/11 09:45:24;;;;;;;0.8;0.8;;;;;;;30.6;40.75293;938.14;;;;
2020/09/11 09:47:51;;;;;;;2.5;1.3;;;;;;;30.67;40.77051;938.0259;;;;
2020/09/11 09:50:18;;;;;;;0.6;0.6;;;;;;;30.49;41.50586;938.0428;;;;
2020/09/11 09:52:43;;;;;;;2;1.4;;;;;;;30.78;40.98438;938.0187;;;;
2020/09/11 09:55:08;;;;;;;0.8;0.7;;;;;;;30.96;40.22266;938.0131;;;;
2020/09/11 09:57:34;;;;;;;1;0.7;;;;;;;30.54;40.80664;938.0061;;;;
2020/09/11 09:59:59;;;;;;;1.8;0.8;;;;;;;30.67;40.4834;938.0203;;;;
2020/09/11 10:02:25;;;;;;;1.5;0.7;;;;;;;30.65;41.10352;938.0542;;;;
2020/09/11 10:04:50;;;;;;;1.2;0.8;;;;;;;30.98;41.80371;937.9811;;;;
2020/09/11 10:07:15;;;;;;;4.7;1;;;;;;;31.24;41.10938;938.0204;;;;
2020/09/11 10:09:42;;;;;;;1.4;0.7;;;;;;;31.38;41.16895;937.9925;;;;
2020/09/11 10:12:12;;;;;;;1.7;0.9;;;;;;;31.29;40.37207;937.9991;;;;
2020/09/11 10:14:41;;;;;;;2.5;1;;;;;;;31.49;39.61133;938.0413;;;;
2020/09/11 10:17:05;;;;;;;0.9;0.7;;;;;;;31.15;40.32324;938.0176;;;;
2020/09/11 10:19:33;;;;;;;1.4;0.8;;;;;;;30.71;41.08496;937.9783;;;;
2020/09/11 10:21:56;;;;;;;2.1;0.8;;;;;;;30.93;40.78223;937.9781;;;;
2020/09/11 10:24:22;;;;;;;1.8;0.9;;;;;;;31.21;39.70703;937.9703;;;;
2020/09/11 10:26:48;;;;;;;2.6;0.9;;;;;;;31.05;41.19922;937.9586;;;;
2020/09/11 10:29:12;;;;;;;1.5;0.9;;;;;;;31.06;40.51953;937.9601;;;;
2020/09/11 10:31:40;;;;;;;1.1;0.8;;;;;;;31.45;40.88965;937.905;;;;
2020/09/11 10:34:05;;;;;;;0.6;0.6;;;;;;;31.6;40.45898;937.8879;;;;
2020/09/11 10:36:31;;;;;;;1.1;0.8;;;;;;;31.51;41.52832;937.8762;;;;
2020/09/11 10:38:56;;;;;;;0.8;0.7;;;;;;;31.65;40.94238;937.8572;;;;
2020/09/11 10:41:23;;;;;;;1.1;0.7;;;;;;;32.16;38.44727;937.8505;;;;
2020/09/11 10:43:48;;;;;;;1.5;1.1;;;;;;;32.52;38.69336;937.8583;;;;
2020/09/11 10:46:16;;;;;;;1.4;0.8;;;;;;;32.38;38.39355;937.8097;;;;
2020/09/11 10:48:41;;;;;;;1.9;0.8;;;;;;;32.05;39.37305;937.7919;;;;
2020/09/11 10:51:08;;;;;;;1.9;1.1;;;;;;;32.65;37.87598;937.7961;;;;
2020/09/11 10:53:33;;;;;;;0.8;0.7;;;;;;;32.81;37.43359;937.7758;;;;
2020/09/11 10:55:59;;;;;;;0.8;0.7;;;;;;;33;37.88184;937.6965;;;;
2020/09/11 10:58:24;;;;;;;1.1;0.8;;;;;;;32.45;38.20801;937.7392;;;;
2020/09/11 11:00:52;;;;;;;1;0.7;;;;;;;32.59;38.16016;937.695;;;;
2020/09/11 11:03:18;;;;;;;3.2;1;;;;;;;32.17;39.82715;937.6525;;;;
2020/09/11 11:05:42;;;;;;;0.8;0.8;;;;;;;31.99;40.25293;937.7258;;;;
2020/09/11 11:08:07;;;;;;;1.2;0.8;;;;;;;31.88;40.0166;937.6678;;;;
2020/09/11 11:10:32;;;;;;;1.1;1;;;;;;;31.46;40.72266;937.7274;;;;
2020/09/11 11:12:57;;;;;;;1;0.8;;;;;;;31.35;42.00391;937.6908;;;;
2020/09/11 11:15:25;;;;;;;1.8;1;;;;;;;31.21;41.83594;937.6877;;;;
2020/09/11 11:17:50;;;;;;;1;0.9;;;;;;;31.48;41.49023;937.7035;;;;
2020/09/11 11:20:16;;;;;;;5.3;1.6;;;;;;;31.84;40.63574;937.6264;;;;
2020/09/11 11:22:46;;;;;;;1;0.9;;;;;;;31.65;40.66699;937.6727;;;;
2020/09/11 11:25:08;;;;;;;1;0.7;;;;;;;31.61;41.80078;937.6781;;;;
2020/09/11 11:27:35;;;;;;;1.7;1.2;;;;;;;31.41;40.63379;937.5958;;;;
2020/09/11 11:29:59;;;;;;;1.2;0.8;;;;;;;31.4;41.13477;937.647;;;;
2020/09/11 11:32:24;;;;;;;0.9;0.8;;;;;;;31.27;42.2002;937.6135;;;;
2020/09/11 11:34:49;;;;;;;2;0.7;;;;;;;31.21;42.64941;937.628;;;;
2020/09/11 11:37:16;;;;;;;1;0.9;;;;;;;31.27;42.24805;937.621;;;;
2020/09/11 11:39:42;;;;;;;1.5;1;;;;;;;31.35;42.06445;937.6019;;;;
2020/09/11 11:42:08;;;;;;;1.1;0.9;;;;;;;31.49;41.17969;937.6301;;;;
2020/09/11 11:44:37;;;;;;;5.7;0.9;;;;;;;31.59;41.55957;937.6397;;;;
2020/09/11 11:47:02;;;;;;;1.1;0.7;;;;;;;31.52;42.21191;937.5764;;;;
2020/09/11 11:49:27;;;;;;;2.3;1;;;;;;;31.85;41.34473;937.5598;;;;
2020/09/11 11:51:53;;;;;;;1.2;0.8;;;;;;;32.02;41.32324;937.4911;;;;
2020/09/11 11:54:20;;;;;;;1.4;0.8;;;;;;;32.6;39.22852;937.5355;;;;
2020/09/11 11:56:45;;;;;;;3.4;1.1;;;;;;;33.23;38.28613;937.5527;;;;
2020/09/11 11:59:10;;;;;;;0.9;0.8;;;;;;;33.72;36.41309;937.5327;;;;
2020/09/11 12:01:36;;;;;;;1.2;0.6;;;;;;;34.23;36.09277;937.5044;;;;
2020/09/11 12:04:01;;;;;;;3.1;0.9;;;;;;;34.56;35.81738;937.5323;;;;
2020/09/11 12:06:27;;;;;;;1.5;0.8;;;;;;;35.03;34.05762;937.5848;;;;
2020/09/11 12:08:52;;;;;;;0.9;0.7;;;;;;;35.59;33.83301;937.5617;;;;
2020/09/11 12:11:21;;;;;;;1.9;0.9;;;;;;;35.37;33.39453;937.5826;;;;
2020/09/11 12:13:51;;;;;;;0.9;0.7;;;;;;;35.51;33.44141;937.5586;;;;
2020/09/11 12:16:24;;;;;;;1.2;0.9;;;;;;;35.77;33.09668;937.5416;;;;
2020/09/11 12:18:51;;;;;;;1.2;0.9;;;;;;;35.57;33.2041;937.589;;;;
2020/09/11 12:21:16;;;;;;;1.6;0.9;;;;;;;35.39;34.28906;937.6431;;;;
2020/09/11 12:23:41;;;;;;;1.2;0.7;;;;;;;35.81;32.49609;937.6252;;;;
2020/09/11 12:26:08;;;;;;;10.1;1;;;;;;;36.4;32.6582;937.5769;;;;
2020/09/11 12:28:34;;;;;;;1;0.9;;;;;;;36.62;31.98438;937.5649;;;;
2020/09/11 12:31:10;;;;;;;1.7;0.8;;;;;;;36.07;33.14355;937.557;;;;
2020/09/11 12:33:37;;;;;;;3.4;1.1;;;;;;;35.58;33.28906;937.5555;;;;
2020/09/11 12:36:02;;;;;;;1.6;1;;;;;;;35.72;33.46777;937.5809;;;;
2020/09/11 12:38:32;;;;;;;1.3;1;;;;;;;35.29;34.04102;937.5455;;;;
2020/09/11 12:41:02;;;;;;;0.8;0.7;;;;;;;35.5;33.52441;937.5066;;;;
2020/09/11 12:43:27;;;;;;;1.9;1;;;;;;;35.26;33.92969;937.5073;;;;
2020/09/11 12:45:52;;;;;;;1.1;0.8;;;;;;;35.39;33.74609;937.5483;;;;
2020/09/11 12:48:17;;;;;;;0.9;0.8;;;;;;;35.66;33.91016;937.4893;;;;
2020/09/11 12:50:47;;;;;;;1.4;1;;;;;;;35.53;33.61133;937.5231;;;;
2020/09/11 12:53:11;;;;;;;1.3;0.8;;;;;;;35.4;33.75879;937.5114;;;;
2020/09/11 12:55:37;;;;;;;1.7;1;;;;;;;35.52;33.27246;937.5318;;;;
2020/09/11 12:58:05;;;;;;;1.8;1.1;;;;;;;35.48;33.72852;937.4978;;;;
2020/09/11 13:00:30;;;;;;;3.5;1.3;;;;;;;35.46;33.64258;937.5211;;;;
2020/09/11 13:02:57;;;;;;;1.3;1;;;;;;;35.41;34.55566;937.4724;;;;
2020/09/11 13:05:21;;;;;;;1.6;0.7;;;;;;;35.48;33.65527;937.4464;;;;
2020/09/11 13:07:46;;;;;;;1.2;0.7;;;;;;;35.09;34.33887;937.4689;;;;
2020/09/11 13:10:17;;;;;;;1.3;0.9;;;;;;;35.07;34.71191;937.4744;;;;
2020/09/11 13:12:44;;;;;;;1.7;0.9;;;;;;;34.81;35.75293;937.5008;;;;
2020/09/11 13:15:09;;;;;;;2.9;1;;;;;;;35.12;35.45117;937.5058;;;;
2020/09/11 13:17:34;;;;;;;1.2;0.9;;;;;;;35.42;33.82031;937.5012;;;;
2020/09/11 13:19:59;;;;;;;2.2;1;;;;;;;35.25;34.42383;937.5122;;;;
2020/09/11 13:22:34;;;;;;;1;0.8;;;;;;;35.38;34.69922;937.4673;;;;
2020/09/11 13:25:01;;;;;;;2.7;0.9;;;;;;;35.32;34.2002;937.5156;;;;
2020/09/11 13:27:27;;;;;;;0.7;0.7;;;;;;;34.86;34.56348;937.5364;;;;
2020/09/11 13:29:54;;;;;;;2.4;1;;;;;;;34.48;35.49902;937.5405;;;;
2020/09/11 13:32:20;;;;;;;0.8;0.8;;;;;;;34.26;36.0957;937.4558;;;;
2020/09/11 13:34:56;;;;;;;0.9;0.8;;;;;;;33.93;35.91211;937.4764;;;;
2020/09/11 13:37:25;;;;;;;0.9;0.6;;;;;;;33.25;36.92969;937.4903;;;;
2020/09/11 13:39:50;;;;;;;1.5;1.2;;;;;;;33.12;38.13184;937.5076;;;;
2020/09/11 13:42:15;;;;;;;4.1;1.1;;;;;;;32.76;37.98242;937.519;;;;
2020/09/11 13:44:42;;;;;;;1.3;0.9;;;;;;;32.75;38.82129;937.5209;;;;
2020/09/11 13:47:07;;;;;;;1.3;0.9;;;;;;;32.5;38.95508;937.5519;;;;
2020/09/11 13:49:36;;;;;;;2.5;1.1;;;;;;;32.17;39.94531;937.5698;;;;
2020/09/11 13:52:04;;;;;;;1.1;0.8;;;;;;;32.09;39.31641;937.5466;;;;
2020/09/11 13:54:28;;;;;;;2;1.2;;;;;;;31.92;39.98535;937.5303;;;;
2020/09/11 13:56:54;;;;;;;1.2;0.7;;;;;;;30.96;42.51855;937.5756;;;;
2020/09/11 13:59:22;;;;;;;1.9;1.1;;;;;;;30.44;43.5332;937.5562;;;;
2020/09/11 14:01:47;;;;;;;3.3;1.7;;;;;;;30.01;44.94727;937.5237;;;;
2020/09/11 14:04:13;;;;;;;0.7;0.7;;;;;;;29.39;45.35059;937.6066;;;;
2020/09/11 14:06:38;;;;;;;3.1;1.4;;;;;;;29.05;47.54297;937.5691;;;;
2020/09/11 14:09:06;;;;;;;1.3;1.1;;;;;;;28.66;47.64453;937.5283;;;;
2020/09/11 14:11:31;;;;;;;1.8;1.2;;;;;;;28.24;49.15625;937.6669;;;;
2020/09/11 14:13:59;;;;;;;2.4;1.2;;;;;;;28.07;49.42285;937.6269;;;;
2020/09/11 14:16:24;;;;;;;1.6;1;;;;;;;27.99;49.08203;937.5852;;;;
2020/09/11 14:18:51;;;;;;;1.7;0.9;;;;;;;27.91;49.13184;937.6146;;;;
2020/09/11 14:21:16;;;;;;;2;1.3;;;;;;;27.77;50.48242;937.6465;;;;
2020/09/11 14:23:44;;;;;;;1.5;1.2;;;;;;;27.64;50.26563;937.6476;;;;
2020/09/11 14:26:13;;;;;;;1.3;1;;;;;;;27.3;50.52441;937.6692;;;;
2020/09/11 14:28:37;;;;;;;2.3;1.2;;;;;;;27.15;51.05273;937.7338;;;;
2020/09/11 14:31:02;;;;;;;1.7;1.1;;;;;;;27.18;50.92676;937.7042;;;;
2020/09/11 14:33:31;;;;;;;2.3;1.3;;;;;;;26.86;51.45801;937.6772;;;;
2020/09/11 14:36:01;;;;;;;1.4;1;;;;;;;26.84;52.33301;937.6954;;;;
2020/09/11 14:38:27;;;;;;;1.2;0.9;;;;;;;26.87;52.58496;937.6702;;;;
2020/09/11 14:40:54;;;;;;;1.3;1;;;;;;;27.03;52.12988;937.6814;;;;
2020/09/11 14:43:20;;;;;;;1.7;0.9;;;;;;;27.02;52.19922;937.718;;;;
2020/09/11 14:45:45;;;;;;;1;0.8;;;;;;;26.8;52.41211;937.6908;;;;
2020/09/11 14:48:10;;;;;;;1.4;1.2;;;;;;;26.89;52.56348;937.7494;;;;
2020/09/11 14:50:35;;;;;;;4.3;1.3;;;;;;;26.95;52.02539;937.8114;;;;
2020/09/11 14:53:02;;;;;;;3.2;1.2;;;;;;;26.66;52.48926;937.7776;;;;
2020/09/11 14:55:27;;;;;;;3;1.3;;;;;;;26.49;52.62305;937.718;;;;
2020/09/11 14:57:54;;;;;;;2;1.2;;;;;;;26.45;52.77344;937.7313;;;;
2020/09/11 15:00:26;;;;;;;2.3;1.1;;;;;;;26.53;53.58691;937.7592;;;;
2020/09/11 15:02:52;;;;;;;1;0.8;;;;;;;26.67;52.84668;937.7712;;;;
2020/09/11 15:05:21;;;;;;;6.3;1.2;;;;;;;26.51;53.09961;937.7871;;;;
2020/09/11 15:07:47;;;;;;;2.7;1.3;;;;;;;26.66;52.73828;937.8236;;;;
2020/09/11 15:10:12;;;;;;;2;1;;;;;;;26.81;52.66016;937.8203;;;;
2020/09/11 15:12:38;;;;;;;2;1.4;;;;;;;26.85;52.46387;937.8301;;;;
2020/09/11 15:15:06;;;;;;;1.1;1;;;;;;;26.83;52.54492;937.8201;;;;
2020/09/11 15:17:31;;;;;;;1.7;1.1;;;;;;;26.59;53.09668;937.822;;;;
2020/09/11 15:19:56;;;;;;;2.4;1.3;;;;;;;26.51;52.41309;937.8325;;;;
2020/09/11 15:22:21;;;;;;;2.5;1.2;;;;;;;26.3;53.41797;937.8458;;;;
2020/09/11 15:24:47;;;;;;;2.6;1.2;;;;;;;26.28;53.04883;937.8589;;;;
2020/09/11 15:27:12;;;;;;;1.7;0.9;;;;;;;26.05;53.41211;937.8859;;;;
2020/09/11 15:29:40;;;;;;;1.7;0.8;;;;;;;25.92;53.51465;937.9122;;;;
2020/09/11 15:32:05;;;;;;;1.2;1;;;;;;;25.93;54.84082;937.8859;;;;
2020/09/11 15:34:31;;;;;;;2.3;1.1;;;;;;;25.88;54.04199;937.9554;;;;